Lost Springs, Kansas
Current Conditions -  °F | °C
As of 4:58 PM on Tuesday 27 Jan 2015 (Local Time) from KFRI Reporting Station
Clear Clear  
Wind Chill: 64°   Ceiling: Unl
Heat Index: 64°   Visibility: 10mi
Dew Point: 34°   Wind: 14mph
Humidity: 32%   Direction: 130°SE
Pressure: 29.98"   Gusts: NA
Location:  38.57°N, 96.97°W
Report Text: KFRI 272258Z AUTO 13012KT 10SM CLR 18/01 A2998 RMK AO2 SLP154 T01790011
Loading
Personal Weather Stations






























Interactive Weather Map New forecast layout! Learn more

10-Day Weather Forecast

Advertisements
Track Severe Weather on mobile